Terminal Aerodrome Forecast
Issued by NWS Twin Cities, MN

Home | Current Version | Previous Version | Text Only | Print | Product List | Glossary Off
Versions: 1 2 3 4 5 6 7 8 9 10 11 12 13 14 15 16 17 18 19 20 21 22 23 24

000
FTUS43 KMPX 271700
TAFMSP
TAF
KMSP 271720Z 2718/2824 32017G27KT P6SM -SHRA SCT025 BKN040
     FM272200 33012KT P6SM VCSH SCT025 BKN040
     FM280200 34005KT P6SM SCT050
     FM281500 33009KT P6SM SCT050=

USA.gov is the U.S. government's official web portal to all federal, state and local government web resources and services.